SWR27M EGLL-LSZH
Flight info
| Callsign | SWR27M |
|---|---|
| Flight time | 1h 14m |
| Altitude | 29000 |
| Route | DET L6 DVR UL9 KONAN DCT KOK DCT SISGA DCT RITAX DCT KRH M150 LAMGO/N0414F270 T721 SUL/N0402F250 T721 RILAX |
| Aircraft | A321/M-SDE3FGHIRWY/LB1 |
Departure
| Time | 2026-04-26 11:39 |
|---|---|
| Airport | London Heathrow Airport (EGLL) |
Arrival
| Time | 2026-04-26 12:53 |
|---|---|
| Airport | Zürich Airport (LSZH) |
| Time | Latitude | Longitude | Altitude | Speed | Heading |
|---|---|---|---|---|---|
| 2026-04-26 11:03 | 51.46858 | -0.44680 | 86 ft | 0 kts | 267° |
| 2026-04-26 11:26 | 51.46858 | -0.44679 | 86 ft | 0 kts | 267° |
| 2026-04-26 11:27 | 51.46859 | -0.44644 | 89 ft | 4 kts | 267° |
| 2026-04-26 11:27 | 51.46860 | -0.44607 | 90 ft | 2 kts | 267° |
| 2026-04-26 11:27 | 51.46864 | -0.44571 | 86 ft | 4 kts | 230° |
| 2026-04-26 11:27 | 51.46883 | -0.44555 | 86 ft | 3 kts | 180° |
| 2026-04-26 11:28 | 51.46905 | -0.44555 | 86 ft | 0 kts | 180° |
| 2026-04-26 11:31 | 51.46885 | -0.44555 | 86 ft | 6 kts | 180° |
| 2026-04-26 11:31 | 51.46826 | -0.44555 | 90 ft | 10 kts | 180° |
| 2026-04-26 11:31 | 51.46756 | -0.44554 | 89 ft | 10 kts | 179° |
| 2026-04-26 11:31 | 51.46691 | -0.44558 | 88 ft | 9 kts | 194° |
| 2026-04-26 11:32 | 51.46664 | -0.44627 | 87 ft | 7 kts | 266° |
| 2026-04-26 11:32 | 51.46664 | -0.44773 | 90 ft | 18 kts | 270° |
| 2026-04-26 11:32 | 51.46664 | -0.44970 | 87 ft | 17 kts | 270° |
| 2026-04-26 11:32 | 51.46663 | -0.45162 | 88 ft | 17 kts | 269° |
| 2026-04-26 11:33 | 51.46662 | -0.45346 | 86 ft | 17 kts | 270° |
| 2026-04-26 11:33 | 51.46662 | -0.45529 | 88 ft | 16 kts | 270° |
| 2026-04-26 11:33 | 51.46662 | -0.45705 | 86 ft | 16 kts | 269° |
| 2026-04-26 11:33 | 51.46661 | -0.45884 | 87 ft | 19 kts | 270° |
| 2026-04-26 11:34 | 51.46660 | -0.46112 | 91 ft | 21 kts | 270° |
| 2026-04-26 11:34 | 51.46659 | -0.46338 | 90 ft | 20 kts | 270° |
| 2026-04-26 11:34 | 51.46658 | -0.46557 | 91 ft | 19 kts | 269° |
| 2026-04-26 11:34 | 51.46658 | -0.46770 | 88 ft | 19 kts | 270° |
| 2026-04-26 11:35 | 51.46657 | -0.46977 | 89 ft | 18 kts | 270° |
| 2026-04-26 11:35 | 51.46657 | -0.47177 | 89 ft | 18 kts | 270° |
| 2026-04-26 11:35 | 51.46656 | -0.47375 | 88 ft | 18 kts | 269° |
| 2026-04-26 11:35 | 51.46655 | -0.47567 | 89 ft | 17 kts | 270° |
| 2026-04-26 11:36 | 51.46654 | -0.47753 | 89 ft | 16 kts | 269° |
| 2026-04-26 11:36 | 51.46654 | -0.47932 | 90 ft | 16 kts | 270° |
| 2026-04-26 11:36 | 51.46654 | -0.48103 | 89 ft | 15 kts | 269° |
| 2026-04-26 11:36 | 51.46641 | -0.48194 | 86 ft | 6 kts | 231° |
| 2026-04-26 11:37 | 51.46607 | -0.48214 | 87 ft | 5 kts | 185° |
| 2026-04-26 11:37 | 51.46556 | -0.48213 | 87 ft | 13 kts | 178° |
| 2026-04-26 11:37 | 51.46487 | -0.48184 | 91 ft | 9 kts | 128° |
| 2026-04-26 11:37 | 51.46480 | -0.48114 | 88 ft | 0 kts | 90° |
| 2026-04-26 11:38 | 51.46480 | -0.48101 | 88 ft | 9 kts | 90° |
| 2026-04-26 11:38 | 51.46482 | -0.47576 | 88 ft | 83 kts | 89° |
| 2026-04-26 11:38 | 51.46486 | -0.46320 | 92 ft | 139 kts | 90° |
| 2026-04-26 11:38 | 51.46489 | -0.44529 | 139 ft | 177 kts | 90° |
| 2026-04-26 11:39 | 51.46484 | -0.42577 | 759 ft | 175 kts | 92° |
| 2026-04-26 11:39 | 51.46142 | -0.40722 | 1370 ft | 179 kts | 123° |
| 2026-04-26 11:39 | 51.45377 | -0.39031 | 1686 ft | 198 kts | 124° |
| 2026-04-26 11:39 | 51.44585 | -0.37060 | 1943 ft | 222 kts | 121° |
| 2026-04-26 11:40 | 51.43735 | -0.34815 | 2361 ft | 247 kts | 120° |
| 2026-04-26 11:40 | 51.42976 | -0.32295 | 3140 ft | 253 kts | 108° |
| 2026-04-26 11:40 | 51.42550 | -0.29561 | 4128 ft | 254 kts | 102° |
| 2026-04-26 11:40 | 51.42219 | -0.26636 | 5022 ft | 259 kts | 100° |
| 2026-04-26 11:41 | 51.41941 | -0.23870 | 5711 ft | 267 kts | 99° |
| 2026-04-26 11:42 | 51.39324 | -0.03269 | 6017 ft | 270 kts | 103° |
| 2026-04-26 11:43 | 51.38921 | -0.00379 | 6012 ft | 270 kts | 103° |
| 2026-04-26 11:43 | 51.38507 | 0.02589 | 6016 ft | 270 kts | 103° |
| 2026-04-26 11:43 | 51.38106 | 0.05459 | 6016 ft | 267 kts | 103° |
| 2026-04-26 11:43 | 51.37705 | 0.08356 | 6017 ft | 267 kts | 102° |
| 2026-04-26 11:44 | 51.37301 | 0.11263 | 6015 ft | 267 kts | 102° |
| 2026-04-26 11:44 | 51.36894 | 0.14172 | 6012 ft | 269 kts | 102° |
| 2026-04-26 11:44 | 51.36483 | 0.17092 | 6015 ft | 269 kts | 102° |
| 2026-04-26 11:44 | 51.36071 | 0.20015 | 6013 ft | 270 kts | 102° |
| 2026-04-26 11:45 | 51.35657 | 0.22938 | 6013 ft | 270 kts | 102° |
| 2026-04-26 11:45 | 51.35243 | 0.25861 | 6013 ft | 270 kts | 102° |
| 2026-04-26 11:45 | 51.34829 | 0.28785 | 6014 ft | 269 kts | 102° |
| 2026-04-26 11:45 | 51.34417 | 0.31703 | 6016 ft | 269 kts | 102° |
| 2026-04-26 11:46 | 51.33999 | 0.34645 | 6343 ft | 273 kts | 102° |
| 2026-04-26 11:46 | 51.33582 | 0.37568 | 7249 ft | 274 kts | 102° |
| 2026-04-26 11:46 | 51.33153 | 0.40557 | 8064 ft | 278 kts | 102° |
| 2026-04-26 11:46 | 51.32717 | 0.43595 | 8853 ft | 282 kts | 102° |
| 2026-04-26 11:47 | 51.32275 | 0.46680 | 9589 ft | 287 kts | 102° |
| 2026-04-26 11:47 | 51.31826 | 0.49810 | 10330 ft | 291 kts | 102° |
| 2026-04-26 11:47 | 51.31356 | 0.53059 | 10712 ft | 311 kts | 103° |
| 2026-04-26 11:47 | 51.30852 | 0.56546 | 10917 ft | 334 kts | 103° |
| 2026-04-26 11:48 | 51.30313 | 0.60258 | 11295 ft | 349 kts | 103° |
| 2026-04-26 11:48 | 51.29693 | 0.64039 | 11953 ft | 354 kts | 105° |
| 2026-04-26 11:48 | 51.29006 | 0.67849 | 12642 ft | 359 kts | 106° |
| 2026-04-26 11:48 | 51.28291 | 0.71639 | 13303 ft | 363 kts | 107° |
| 2026-04-26 11:49 | 51.27554 | 0.75512 | 13971 ft | 368 kts | 107° |
| 2026-04-26 11:49 | 51.26808 | 0.79451 | 14632 ft | 372 kts | 107° |
| 2026-04-26 11:49 | 51.26061 | 0.83428 | 15280 ft | 376 kts | 106° |
| 2026-04-26 11:49 | 51.25314 | 0.87449 | 15906 ft | 380 kts | 106° |
| 2026-04-26 11:50 | 51.24564 | 0.91506 | 16517 ft | 384 kts | 106° |
| 2026-04-26 11:50 | 51.23804 | 0.95633 | 17137 ft | 388 kts | 106° |
| 2026-04-26 11:50 | 51.23039 | 0.99775 | 17710 ft | 392 kts | 106° |
| 2026-04-26 11:50 | 51.22274 | 1.03908 | 18262 ft | 395 kts | 106° |
| 2026-04-26 11:51 | 51.21490 | 1.08127 | 18814 ft | 399 kts | 106° |
| 2026-04-26 11:51 | 51.20693 | 1.12394 | 19349 ft | 403 kts | 106° |
| 2026-04-26 11:51 | 51.19888 | 1.16690 | 19877 ft | 406 kts | 106° |
| 2026-04-26 11:51 | 51.19075 | 1.21026 | 20365 ft | 410 kts | 106° |
| 2026-04-26 11:52 | 51.18249 | 1.25398 | 20865 ft | 414 kts | 106° |
| 2026-04-26 11:52 | 51.17696 | 1.28313 | 21189 ft | 416 kts | 106° |
| 2026-04-26 11:52 | 51.16590 | 1.34258 | 21824 ft | 420 kts | 103° |
| 2026-04-26 11:52 | 51.16108 | 1.38851 | 22275 ft | 423 kts | 94° |
| 2026-04-26 11:53 | 51.15894 | 1.43480 | 22715 ft | 426 kts | 93° |
| 2026-04-26 11:53 | 51.15676 | 1.48195 | 23156 ft | 429 kts | 93° |
| 2026-04-26 11:53 | 51.15186 | 1.52900 | 23563 ft | 433 kts | 107° |
| 2026-04-26 11:54 | 51.12934 | 1.61872 | 24383 ft | 440 kts | 112° |
| 2026-04-26 11:54 | 51.11741 | 1.66369 | 24784 ft | 443 kts | 112° |
| 2026-04-26 11:54 | 51.10531 | 1.70891 | 25180 ft | 445 kts | 112° |
| 2026-04-26 11:54 | 51.09312 | 1.75440 | 25577 ft | 448 kts | 112° |
| 2026-04-26 11:55 | 51.08086 | 1.80025 | 25952 ft | 451 kts | 112° |
| 2026-04-26 11:55 | 51.06857 | 1.84620 | 26316 ft | 454 kts | 112° |
| 2026-04-26 11:55 | 51.05626 | 1.89223 | 26679 ft | 456 kts | 112° |
| 2026-04-26 11:55 | 51.04376 | 1.93895 | 27044 ft | 459 kts | 112° |
| 2026-04-26 11:56 | 51.03142 | 1.98505 | 27392 ft | 461 kts | 112° |
| 2026-04-26 11:56 | 51.01882 | 2.03203 | 27747 ft | 463 kts | 112° |
| 2026-04-26 11:56 | 51.00614 | 2.07923 | 28111 ft | 465 kts | 112° |
| 2026-04-26 11:56 | 50.99340 | 2.12648 | 28453 ft | 467 kts | 112° |
| 2026-04-26 11:57 | 50.98057 | 2.17397 | 28764 ft | 470 kts | 113° |
| 2026-04-26 11:57 | 50.96764 | 2.22168 | 29083 ft | 472 kts | 113° |
| 2026-04-26 11:57 | 50.95462 | 2.26958 | 29289 ft | 473 kts | 113° |
| 2026-04-26 11:57 | 50.94172 | 2.31688 | 29334 ft | 462 kts | 113° |
| 2026-04-26 11:58 | 50.92905 | 2.36336 | 29328 ft | 458 kts | 113° |
| 2026-04-26 11:58 | 50.90375 | 2.45560 | 29329 ft | 456 kts | 113° |
| 2026-04-26 11:59 | 50.87849 | 2.54755 | 29322 ft | 455 kts | 113° |
| 2026-04-26 11:59 | 50.85330 | 2.63932 | 29328 ft | 455 kts | 113° |
| 2026-04-26 12:00 | 50.82788 | 2.73130 | 29325 ft | 455 kts | 113° |
| 2026-04-26 12:00 | 50.80261 | 2.82228 | 29315 ft | 455 kts | 113° |
| 2026-04-26 12:01 | 50.77708 | 2.91372 | 29313 ft | 454 kts | 114° |
| 2026-04-26 12:01 | 50.75147 | 3.00497 | 29310 ft | 454 kts | 114° |
| 2026-04-26 12:02 | 50.72586 | 3.09598 | 29304 ft | 454 kts | 114° |
| 2026-04-26 12:02 | 50.70025 | 3.18700 | 29300 ft | 454 kts | 114° |
| 2026-04-26 12:03 | 50.67456 | 3.27797 | 29300 ft | 454 kts | 114° |
| 2026-04-26 12:03 | 50.64886 | 3.36824 | 29299 ft | 454 kts | 114° |
| 2026-04-26 12:04 | 50.62292 | 3.45898 | 29301 ft | 454 kts | 114° |
| 2026-04-26 12:04 | 50.59704 | 3.54964 | 29306 ft | 454 kts | 114° |
| 2026-04-26 12:05 | 50.57105 | 3.64008 | 29309 ft | 453 kts | 114° |
| 2026-04-26 12:05 | 50.54493 | 3.73035 | 29309 ft | 453 kts | 114° |
| 2026-04-26 12:06 | 50.51884 | 3.82036 | 29305 ft | 452 kts | 114° |
| 2026-04-26 12:06 | 50.49284 | 3.90958 | 29304 ft | 452 kts | 114° |
| 2026-04-26 12:07 | 50.46665 | 3.99920 | 29304 ft | 452 kts | 114° |
| 2026-04-26 12:07 | 50.44043 | 4.08884 | 29306 ft | 452 kts | 114° |
| 2026-04-26 12:08 | 50.41412 | 4.17832 | 29309 ft | 451 kts | 115° |
| 2026-04-26 12:08 | 50.38775 | 4.26764 | 29310 ft | 451 kts | 115° |
| 2026-04-26 12:09 | 50.36134 | 4.35670 | 29314 ft | 451 kts | 115° |
| 2026-04-26 12:09 | 50.33481 | 4.44590 | 29301 ft | 452 kts | 114° |
| 2026-04-26 12:10 | 50.30812 | 4.53528 | 29275 ft | 455 kts | 114° |
| 2026-04-26 12:10 | 50.28124 | 4.62509 | 29275 ft | 456 kts | 114° |
| 2026-04-26 12:11 | 50.25447 | 4.71444 | 29280 ft | 457 kts | 114° |
| 2026-04-26 12:11 | 50.22735 | 4.80426 | 29284 ft | 457 kts | 114° |
| 2026-04-26 12:12 | 50.20009 | 4.89393 | 29291 ft | 456 kts | 115° |
| 2026-04-26 12:12 | 50.17287 | 4.98321 | 29291 ft | 456 kts | 115° |
| 2026-04-26 12:13 | 50.14561 | 5.07246 | 29294 ft | 455 kts | 115° |
| 2026-04-26 12:13 | 50.11846 | 5.16149 | 29301 ft | 455 kts | 115° |
| 2026-04-26 12:14 | 50.09122 | 5.25034 | 29305 ft | 454 kts | 115° |
| 2026-04-26 12:14 | 50.06411 | 5.33827 | 29304 ft | 453 kts | 115° |
| 2026-04-26 12:15 | 50.03678 | 5.42644 | 29304 ft | 452 kts | 116° |
| 2026-04-26 12:15 | 50.00942 | 5.51442 | 29302 ft | 451 kts | 116° |
| 2026-04-26 12:16 | 49.98210 | 5.60215 | 29299 ft | 451 kts | 116° |
| 2026-04-26 12:16 | 49.95471 | 5.68971 | 29294 ft | 450 kts | 116° |
| 2026-04-26 12:17 | 49.92725 | 5.77705 | 29290 ft | 450 kts | 116° |
| 2026-04-26 12:17 | 49.89972 | 5.86419 | 29283 ft | 450 kts | 116° |
| 2026-04-26 12:18 | 49.87244 | 5.95059 | 29278 ft | 449 kts | 116° |
| 2026-04-26 12:18 | 49.84491 | 6.03744 | 29272 ft | 449 kts | 116° |
| 2026-04-26 12:19 | 49.81726 | 6.12409 | 29269 ft | 449 kts | 116° |
| 2026-04-26 12:19 | 49.78953 | 6.21066 | 29265 ft | 448 kts | 116° |
| 2026-04-26 12:20 | 49.76190 | 6.29708 | 29266 ft | 448 kts | 117° |
| 2026-04-26 12:20 | 49.73412 | 6.38335 | 29270 ft | 448 kts | 117° |
| 2026-04-26 12:21 | 49.70645 | 6.46895 | 29263 ft | 448 kts | 117° |
| 2026-04-26 12:21 | 49.67857 | 6.55499 | 29267 ft | 448 kts | 117° |
| 2026-04-26 12:22 | 49.65061 | 6.64103 | 29260 ft | 448 kts | 117° |
| 2026-04-26 12:22 | 49.62264 | 6.72686 | 29256 ft | 448 kts | 117° |
| 2026-04-26 12:23 | 49.59478 | 6.81203 | 29255 ft | 448 kts | 118° |
| 2026-04-26 12:23 | 49.56659 | 6.89762 | 29251 ft | 448 kts | 118° |
| 2026-04-26 12:24 | 49.53839 | 6.98314 | 29250 ft | 448 kts | 118° |
| 2026-04-26 12:24 | 49.51012 | 7.06863 | 29248 ft | 448 kts | 118° |
| 2026-04-26 12:25 | 49.46777 | 7.19589 | 29245 ft | 447 kts | 118° |
| 2026-04-26 12:25 | 49.43942 | 7.28096 | 29241 ft | 447 kts | 118° |
| 2026-04-26 12:26 | 49.41108 | 7.36588 | 29235 ft | 447 kts | 119° |
| 2026-04-26 12:26 | 49.38265 | 7.45075 | 29235 ft | 447 kts | 119° |
| 2026-04-26 12:27 | 49.35412 | 7.53534 | 29234 ft | 446 kts | 119° |
| 2026-04-26 12:27 | 49.32576 | 7.61931 | 29236 ft | 447 kts | 119° |
| 2026-04-26 12:28 | 49.29712 | 7.70380 | 29233 ft | 446 kts | 119° |
| 2026-04-26 12:28 | 49.26841 | 7.78822 | 29232 ft | 447 kts | 119° |
| 2026-04-26 12:29 | 49.23964 | 7.87246 | 29232 ft | 447 kts | 120° |
| 2026-04-26 12:30 | 49.19663 | 7.99810 | 29239 ft | 447 kts | 120° |
| 2026-04-26 12:30 | 49.16772 | 8.08220 | 29239 ft | 447 kts | 120° |
| 2026-04-26 12:31 | 49.12417 | 8.20819 | 29243 ft | 448 kts | 120° |
| 2026-04-26 12:31 | 49.09489 | 8.29219 | 29010 ft | 449 kts | 120° |
| 2026-04-26 12:32 | 49.08020 | 8.33424 | 28561 ft | 448 kts | 120° |
| 2026-04-26 12:32 | 49.06582 | 8.37542 | 28067 ft | 444 kts | 120° |
| 2026-04-26 12:32 | 49.03712 | 8.45796 | 27065 ft | 438 kts | 120° |
| 2026-04-26 12:33 | 49.02298 | 8.49860 | 26568 ft | 435 kts | 120° |
| 2026-04-26 12:33 | 49.00875 | 8.53932 | 26068 ft | 432 kts | 120° |
| 2026-04-26 12:33 | 48.99405 | 8.57883 | 25571 ft | 427 kts | 125° |
| 2026-04-26 12:33 | 48.97630 | 8.61470 | 25069 ft | 422 kts | 132° |
| 2026-04-26 12:34 | 48.95749 | 8.64871 | 24558 ft | 419 kts | 132° |
| 2026-04-26 12:34 | 48.93903 | 8.68207 | 24085 ft | 416 kts | 133° |
| 2026-04-26 12:34 | 48.91838 | 8.71236 | 23563 ft | 409 kts | 144° |
| 2026-04-26 12:34 | 48.89475 | 8.73558 | 23070 ft | 403 kts | 155° |
| 2026-04-26 12:35 | 48.86895 | 8.75129 | 22568 ft | 396 kts | 166° |
| 2026-04-26 12:35 | 48.84214 | 8.75916 | 22070 ft | 391 kts | 177° |
| 2026-04-26 12:35 | 48.81513 | 8.75942 | 21567 ft | 385 kts | 187° |
| 2026-04-26 12:35 | 48.78881 | 8.75316 | 21068 ft | 382 kts | 192° |
| 2026-04-26 12:36 | 48.76276 | 8.74611 | 20567 ft | 380 kts | 192° |
| 2026-04-26 12:36 | 48.74554 | 8.74150 | 20238 ft | 378 kts | 192° |
| 2026-04-26 12:36 | 48.71135 | 8.73239 | 19573 ft | 375 kts | 192° |
| 2026-04-26 12:36 | 48.68570 | 8.72555 | 19058 ft | 373 kts | 192° |
| 2026-04-26 12:37 | 48.66025 | 8.71881 | 18570 ft | 371 kts | 191° |
| 2026-04-26 12:37 | 48.63492 | 8.71207 | 18069 ft | 369 kts | 192° |
| 2026-04-26 12:37 | 48.60973 | 8.70533 | 17568 ft | 367 kts | 192° |
| 2026-04-26 12:37 | 48.58464 | 8.69864 | 17066 ft | 365 kts | 191° |
| 2026-04-26 12:38 | 48.56818 | 8.69425 | 16751 ft | 363 kts | 191° |
| 2026-04-26 12:38 | 48.54342 | 8.68768 | 16563 ft | 362 kts | 191° |
| 2026-04-26 12:38 | 48.51870 | 8.68113 | 16283 ft | 358 kts | 191° |
| 2026-04-26 12:38 | 48.49407 | 8.67462 | 16009 ft | 359 kts | 191° |
| 2026-04-26 12:39 | 48.46956 | 8.66815 | 15532 ft | 357 kts | 191° |
| 2026-04-26 12:39 | 48.44517 | 8.66170 | 15059 ft | 355 kts | 191° |
| 2026-04-26 12:39 | 48.42097 | 8.65531 | 14588 ft | 352 kts | 191° |
| 2026-04-26 12:39 | 48.39692 | 8.64901 | 14107 ft | 350 kts | 191° |
| 2026-04-26 12:40 | 48.37294 | 8.64267 | 13631 ft | 348 kts | 191° |
| 2026-04-26 12:40 | 48.34171 | 8.63358 | 13030 ft | 345 kts | 192° |
| 2026-04-26 12:40 | 48.32579 | 8.62866 | 12760 ft | 342 kts | 193° |
| 2026-04-26 12:40 | 48.30259 | 8.62137 | 12317 ft | 339 kts | 193° |
| 2026-04-26 12:41 | 48.27984 | 8.61422 | 11867 ft | 337 kts | 193° |
| 2026-04-26 12:41 | 48.25696 | 8.60710 | 11419 ft | 335 kts | 192° |
| 2026-04-26 12:41 | 48.23415 | 8.60015 | 11222 ft | 335 kts | 192° |
| 2026-04-26 12:41 | 48.21125 | 8.59324 | 11237 ft | 336 kts | 192° |
| 2026-04-26 12:42 | 48.18827 | 8.58636 | 11238 ft | 337 kts | 192° |
| 2026-04-26 12:42 | 48.16530 | 8.57949 | 11232 ft | 337 kts | 192° |
| 2026-04-26 12:42 | 48.14230 | 8.57261 | 11229 ft | 336 kts | 192° |
| 2026-04-26 12:42 | 48.11966 | 8.56393 | 11229 ft | 336 kts | 197° |
| 2026-04-26 12:43 | 48.09722 | 8.55403 | 11230 ft | 336 kts | 198° |
| 2026-04-26 12:43 | 48.07491 | 8.54369 | 11227 ft | 336 kts | 198° |
| 2026-04-26 12:43 | 48.05291 | 8.53329 | 11229 ft | 336 kts | 198° |
| 2026-04-26 12:43 | 48.03067 | 8.52273 | 11225 ft | 336 kts | 198° |
| 2026-04-26 12:44 | 48.00835 | 8.51221 | 11219 ft | 336 kts | 198° |
| 2026-04-26 12:44 | 47.98606 | 8.50181 | 11220 ft | 336 kts | 198° |
| 2026-04-26 12:44 | 47.96372 | 8.49150 | 11218 ft | 336 kts | 197° |
| 2026-04-26 12:44 | 47.94171 | 8.48140 | 11218 ft | 323 kts | 197° |
| 2026-04-26 12:45 | 47.92075 | 8.47181 | 11217 ft | 306 kts | 197° |
| 2026-04-26 12:45 | 47.90081 | 8.46267 | 11130 ft | 296 kts | 197° |
| 2026-04-26 12:45 | 47.88125 | 8.45368 | 10775 ft | 293 kts | 197° |
| 2026-04-26 12:45 | 47.86179 | 8.44475 | 10389 ft | 292 kts | 197° |
| 2026-04-26 12:46 | 47.84238 | 8.43586 | 9990 ft | 291 kts | 197° |
| 2026-04-26 12:46 | 47.82303 | 8.42699 | 9592 ft | 291 kts | 197° |
| 2026-04-26 12:46 | 47.80371 | 8.41814 | 9215 ft | 290 kts | 197° |
| 2026-04-26 12:46 | 47.78471 | 8.40942 | 8826 ft | 289 kts | 197° |
| 2026-04-26 12:47 | 47.76550 | 8.40067 | 8443 ft | 288 kts | 197° |
| 2026-04-26 12:47 | 47.74653 | 8.39204 | 8248 ft | 280 kts | 197° |
| 2026-04-26 12:47 | 47.72850 | 8.38383 | 8112 ft | 263 kts | 197° |
| 2026-04-26 12:47 | 47.71159 | 8.37610 | 7919 ft | 248 kts | 197° |
| 2026-04-26 12:48 | 47.69521 | 8.36863 | 7540 ft | 245 kts | 197° |
| 2026-04-26 12:48 | 47.67902 | 8.36122 | 7126 ft | 243 kts | 197° |
| 2026-04-26 12:48 | 47.66292 | 8.35388 | 6747 ft | 241 kts | 195° |
| 2026-04-26 12:48 | 47.64648 | 8.35135 | 6331 ft | 238 kts | 176° |
| 2026-04-26 12:49 | 47.63037 | 8.35305 | 6051 ft | 227 kts | 174° |
| 2026-04-26 12:49 | 47.61543 | 8.35776 | 5792 ft | 216 kts | 155° |
| 2026-04-26 12:49 | 47.60320 | 8.36991 | 5416 ft | 210 kts | 136° |
| 2026-04-26 12:49 | 47.59239 | 8.38478 | 4916 ft | 213 kts | 136° |
| 2026-04-26 12:50 | 47.58154 | 8.39976 | 4422 ft | 214 kts | 136° |
| 2026-04-26 12:50 | 47.57045 | 8.41500 | 3881 ft | 222 kts | 136° |
| 2026-04-26 12:50 | 47.55913 | 8.43055 | 3504 ft | 224 kts | 136° |
| 2026-04-26 12:50 | 47.54773 | 8.44617 | 3182 ft | 223 kts | 136° |
| 2026-04-26 12:51 | 47.53643 | 8.46167 | 2893 ft | 218 kts | 136° |
| 2026-04-26 12:51 | 47.52576 | 8.47627 | 2611 ft | 200 kts | 135° |
| 2026-04-26 12:51 | 47.51595 | 8.48968 | 2338 ft | 184 kts | 134° |
| 2026-04-26 12:51 | 47.50699 | 8.50193 | 2131 ft | 167 kts | 134° |
| 2026-04-26 12:52 | 47.49892 | 8.51298 | 1899 ft | 152 kts | 134° |
| 2026-04-26 12:52 | 47.49146 | 8.52322 | 1692 ft | 146 kts | 133° |
| 2026-04-26 12:52 | 47.48403 | 8.53333 | 1515 ft | 144 kts | 135° |
| 2026-04-26 12:52 | 47.47681 | 8.54326 | 1402 ft | 135 kts | 135° |
| 2026-04-26 12:53 | 47.47079 | 8.55153 | 1384 ft | 94 kts | 137° |
| 2026-04-26 12:53 | 47.46730 | 8.55629 | 1397 ft | 44 kts | 137° |
| 2026-04-26 12:53 | 47.46573 | 8.55835 | 1404 ft | 27 kts | 143° |
| 2026-04-26 12:53 | 47.46413 | 8.55945 | 1400 ft | 24 kts | 165° |
| 2026-04-26 12:54 | 47.46301 | 8.55983 | 1410 ft | 4 kts | 168° |
| 2026-04-26 12:54 | 47.46288 | 8.55987 | 1402 ft | 0 kts | 169° |
| 2026-04-26 12:54 | 47.46270 | 8.55992 | 1407 ft | 4 kts | 169° |
| 2026-04-26 12:54 | 47.46215 | 8.56003 | 1408 ft | 14 kts | 180° |
| 2026-04-26 12:55 | 47.46121 | 8.55995 | 1407 ft | 13 kts | 185° |
| 2026-04-26 12:55 | 47.46037 | 8.55983 | 1409 ft | 12 kts | 186° |
| 2026-04-26 12:55 | 47.45955 | 8.55962 | 1410 ft | 10 kts | 197° |
| 2026-04-26 12:55 | 47.45917 | 8.55942 | 1410 ft | 3 kts | 199° |
| 2026-04-26 12:56 | 47.45909 | 8.55938 | 1412 ft | 0 kts | 199° |
| 2026-04-26 12:56 | 47.45878 | 8.55922 | 1409 ft | 10 kts | 200° |
| 2026-04-26 12:57 | 47.45818 | 8.55890 | 1414 ft | 9 kts | 198° |
| 2026-04-26 12:57 | 47.45726 | 8.55870 | 1413 ft | 15 kts | 186° |
| 2026-04-26 12:57 | 47.45648 | 8.55838 | 1409 ft | 10 kts | 229° |
| 2026-04-26 12:58 | 47.45657 | 8.55596 | 1407 ft | 14 kts | 276° |
| 2026-04-26 12:58 | 47.45668 | 8.55445 | 1409 ft | 15 kts | 276° |
| 2026-04-26 12:58 | 47.45678 | 8.55294 | 1403 ft | 11 kts | 275° |
| 2026-04-26 12:58 | 47.45653 | 8.55212 | 1398 ft | 9 kts | 199° |
| 2026-04-26 12:59 | 47.45598 | 8.55234 | 1400 ft | 8 kts | 154° |
| 2026-04-26 12:59 | 47.45537 | 8.55277 | 1407 ft | 11 kts | 155° |
| 2026-04-26 12:59 | 47.45472 | 8.55321 | 1406 ft | 10 kts | 155° |
| 2026-04-26 12:59 | 47.45408 | 8.55365 | 1403 ft | 10 kts | 155° |
| 2026-04-26 13:00 | 47.45352 | 8.55404 | 1406 ft | 8 kts | 154° |
| 2026-04-26 13:00 | 47.45318 | 8.55450 | 1408 ft | 5 kts | 126° |
| 2026-04-26 13:00 | 47.45293 | 8.55510 | 1414 ft | 8 kts | 120° |
| 2026-04-26 13:00 | 47.45276 | 8.55570 | 1410 ft | 4 kts | 103° |
| 2026-04-26 13:01 | 47.45274 | 8.55600 | 1411 ft | 4 kts | 95° |
| 2026-04-26 13:01 | 47.45270 | 8.55668 | 1410 ft | 7 kts | 95° |
| 2026-04-26 13:01 | 47.45245 | 8.55703 | 1407 ft | 5 kts | 172° |
| 2026-04-26 13:01 | 47.45216 | 8.55700 | 1410 ft | 4 kts | 186° |
| 2026-04-26 13:02 | 47.45195 | 8.55696 | 1407 ft | 2 kts | 186° |
| 2026-04-26 13:02 | 47.45192 | 8.55696 | 1407 ft | 0 kts | 186° |